Time;durP1;ratioP1;P1;durP2;ratioP2;P2;SDS_P1;SDS_P2;PMS_P1;PMS_P2;Temp;Humidity;BMP_temperature;BMP_pressure;BME280_temperature;BME280_humidity;BME280_pressure;Samples;Min_cycle;Max_cycle;Signal;HPM_P1;HPM_P2
2022/11/11 00:00:38;;;;;;;9.60;6.53;;;;;;;6.75;nan;99529.66;5055740;28;20339;-69
2022/11/11 00:03:04;;;;;;;9.13;6.80;;;;;;;6.79;nan;99536.31;5055647;28;20209;-69
2022/11/11 00:05:33;;;;;;;10.90;6.63;;;;;;;6.67;nan;99533.13;5055508;28;20216;-69
2022/11/11 00:07:59;;;;;;;8.50;6.37;;;;;;;6.67;nan;99519.91;5055705;28;20221;-69
2022/11/11 00:10:27;;;;;;;9.20;6.53;;;;;;;6.69;nan;99527.69;5055889;28;20225;-69
2022/11/11 00:12:53;;;;;;;7.90;6.33;;;;;;;6.66;nan;99522.69;5055669;28;20205;-69
2022/11/11 00:15:20;;;;;;;8.37;6.47;;;;;;;6.66;nan;99515.56;5055618;28;20217;-69
2022/11/11 00:26:09;;;;;;;8.87;6.50;;;;;;;6.56;nan;99529.91;5055215;28;20205;-69
2022/11/11 00:28:35;;;;;;;12.20;6.70;;;;;;;6.54;nan;99535.34;5055041;28;20718;-69
2022/11/11 00:31:07;;;;;;;11.13;7.20;;;;;;;6.47;nan;99538.78;5055226;28;20716;-69
2022/11/11 00:33:33;;;;;;;9.60;6.73;;;;;;;6.50;nan;99538.47;5055586;28;20190;-69
2022/11/11 00:36:00;;;;;;;9.70;6.87;;;;;;;6.46;nan;99537.09;5054812;28;20215;-69
2022/11/11 00:41:15;;;;;;;9.00;6.93;;;;;;;6.49;nan;99536.81;5055306;28;20298;-69
2022/11/11 00:43:42;;;;;;;9.27;7.10;;;;;;;6.49;nan;99537.66;5054762;28;20311;-69
2022/11/11 00:51:37;;;;;;;9.07;6.37;;;;;;;6.46;nan;99545.88;5054837;28;20215;-69
2022/11/11 00:54:03;;;;;;;9.53;7.07;;;;;;;6.37;nan;99548.63;5054899;28;20201;-69
2022/11/11 00:56:30;;;;;;;8.97;7.70;;;;;;;6.31;nan;99552.72;5054865;28;20201;-68
2022/11/11 00:58:56;;;;;;;10.20;7.33;;;;;;;6.31;nan;99563.28;5054813;28;20209;-69
2022/11/11 01:01:23;;;;;;;7.70;6.47;;;;;;;6.32;nan;99564.09;5054409;28;20716;-68
2022/11/11 01:03:49;;;;;;;11.43;7.00;;;;;;;6.35;nan;99567.28;5054676;28;20207;-68
2022/11/11 01:06:16;;;;;;;9.97;7.10;;;;;;;6.39;nan;99562.50;5054312;28;20206;-68
2022/11/11 01:08:43;;;;;;;10.30;6.57;;;;;;;6.37;nan;99559.19;5054511;28;20221;-68
2022/11/11 01:11:19;;;;;;;8.50;6.87;;;;;;;6.34;nan;99565.59;5054447;28;20229;-68
2022/11/11 01:13:45;;;;;;;11.40;7.40;;;;;;;6.28;nan;99562.75;5055051;28;20185;-69
2022/11/11 01:16:15;;;;;;;8.97;6.63;;;;;;;6.26;nan;99552.38;5054470;28;20205;-68
2022/11/11 01:18:42;;;;;;;10.67;6.90;;;;;;;6.25;nan;99540.13;5054447;28;20292;-68
2022/11/11 01:21:15;;;;;;;9.83;7.07;;;;;;;6.21;nan;99538.81;5054122;28;20232;-68
2022/11/11 01:23:44;;;;;;;10.30;7.47;;;;;;;6.23;nan;99541.28;5054597;28;20200;-68
2022/11/11 01:26:22;;;;;;;11.67;7.33;;;;;;;6.23;nan;99541.28;5054024;28;20205;-69
2022/11/11 01:28:54;;;;;;;10.43;7.33;;;;;;;6.27;nan;99542.63;5053935;28;20711;-68
2022/11/11 01:31:22;;;;;;;9.97;6.90;;;;;;;6.27;nan;99540.81;5053983;28;20224;-68
2022/11/11 01:33:48;;;;;;;9.43;7.00;;;;;;;6.28;nan;99534.53;5054135;28;20206;-68
2022/11/11 01:36:20;;;;;;;8.67;7.30;;;;;;;6.28;nan;99546.91;5054000;28;20205;-68
2022/11/11 01:38:52;;;;;;;12.97;7.17;;;;;;;6.33;nan;99547.31;5053819;28;20577;-68
2022/11/11 01:41:35;;;;;;;9.23;7.07;;;;;;;6.25;nan;99545.41;5053973;28;20330;-68
2022/11/11 01:44:10;;;;;;;10.27;7.47;;;;;;;6.25;nan;99563.09;5053777;28;20645;-69
2022/11/11 01:46:59;;;;;;;9.77;6.87;;;;;;;6.22;nan;99555.47;5053852;28;20189;-69
2022/11/11 01:49:33;;;;;;;7.20;5.70;;;;;;;6.26;nan;99560.28;5053678;28;20192;-69
2022/11/11 01:52:21;;;;;;;9.13;6.73;;;;;;;6.23;nan;99557.13;5052425;28;20225;-69
2022/11/11 01:55:10;;;;;;;9.80;6.97;;;;;;;6.20;nan;99547.69;5053107;28;20651;-69
2022/11/11 01:57:42;;;;;;;9.23;6.67;;;;;;;6.17;nan;99548.03;5053827;28;20196;-69
2022/11/11 02:00:12;;;;;;;9.73;6.93;;;;;;;6.18;nan;99551.47;5053694;28;20539;-69
2022/11/11 02:02:59;;;;;;;9.20;7.03;;;;;;;6.16;nan;99535.78;5053674;28;20205;-69
2022/11/11 02:05:41;;;;;;;9.13;6.33;;;;;;;6.21;nan;99548.53;5053336;28;20205;-69
2022/11/11 02:08:15;;;;;;;10.60;6.37;;;;;;;6.12;nan;99552.09;5054048;28;20220;-69
2022/11/11 02:10:46;;;;;;;9.10;6.57;;;;;;;6.07;nan;99549.91;5053582;28;20224;-69
2022/11/11 02:15:59;;;;;;;8.60;6.23;;;;;;;5.91;nan;99555.09;5053326;28;20180;-69
2022/11/11 02:18:27;;;;;;;7.50;5.97;;;;;;;5.84;nan;99555.84;5052573;28;20197;-69
2022/11/11 02:20:54;;;;;;;6.93;5.90;;;;;;;5.83;nan;99555.00;5053324;28;20228;-69
2022/11/11 02:23:42;;;;;;;7.77;6.40;;;;;;;5.84;nan;99553.22;5053310;28;20213;-69
2022/11/11 02:26:11;;;;;;;8.50;6.57;;;;;;;5.87;nan;99563.44;5052371;28;20198;-69
2022/11/11 02:28:38;;;;;;;10.00;6.47;;;;;;;5.83;nan;99559.47;5053157;28;20239;-69
2022/11/11 02:31:05;;;;;;;9.13;6.57;;;;;;;5.83;nan;99568.22;5053147;28;20228;-69
2022/11/11 02:33:31;;;;;;;8.77;6.40;;;;;;;5.90;nan;99555.22;5053762;28;20209;-69
2022/11/11 02:35:59;;;;;;;8.67;6.90;;;;;;;5.91;nan;99559.53;5053735;28;20291;-69
2022/11/11 02:38:26;;;;;;;8.27;6.63;;;;;;;5.93;nan;99552.28;5053208;28;20657;-69
2022/11/11 02:43:37;;;;;;;7.10;6.40;;;;;;;5.89;nan;99559.66;5053105;28;20171;-69
2022/11/11 02:46:05;;;;;;;7.27;6.57;;;;;;;5.82;nan;99555.16;5053219;28;20212;-69
2022/11/11 02:48:32;;;;;;;8.60;6.70;;;;;;;5.86;nan;99560.00;5052866;28;20220;-69
2022/11/11 02:50:58;;;;;;;9.43;7.10;;;;;;;5.83;nan;99562.94;5053099;28;20229;-69
2022/11/11 02:53:25;;;;;;;8.10;6.43;;;;;;;5.84;nan;99561.94;5052835;28;20215;-69
2022/11/11 02:55:51;;;;;;;12.17;7.27;;;;;;;5.80;nan;99554.47;5052507;28;20211;-69
2022/11/11 02:58:18;;;;;;;9.07;6.87;;;;;;;5.81;nan;99550.88;5052761;28;20366;-69
2022/11/11 03:00:44;;;;;;;8.63;6.30;;;;;;;5.81;nan;99548.22;5052615;28;20235;-69
2022/11/11 03:03:11;;;;;;;11.57;6.90;;;;;;;5.80;nan;99555.34;5052980;28;20209;-69
2022/11/11 03:05:37;;;;;;;7.67;6.87;;;;;;;5.78;nan;99553.75;5052636;28;20205;-69
2022/11/11 03:08:03;;;;;;;8.20;6.40;;;;;;;5.76;nan;99548.66;5054265;28;20217;-69
2022/11/11 03:10:30;;;;;;;8.80;7.07;;;;;;;5.78;nan;99545.84;5056163;28;20232;-69
2022/11/11 03:12:57;;;;;;;9.40;6.60;;;;;;;5.75;nan;99551.47;5056161;28;20215;-69
2022/11/11 03:15:23;;;;;;;8.03;7.03;;;;;;;5.72;nan;99547.31;5056428;28;20231;-68
2022/11/11 03:17:48;;;;;;;7.20;6.27;;;;;;;5.73;nan;99540.22;5056448;28;20203;-69
2022/11/11 03:23:04;;;;;;;8.50;7.00;;;;;;;5.61;nan;99550.16;5056084;28;20199;-68
2022/11/11 03:25:40;;;;;;;8.87;7.07;;;;;;;5.63;nan;99545.59;5056461;28;20617;-69
2022/11/11 03:28:12;;;;;;;8.33;7.43;;;;;;;5.59;nan;99548.66;5056384;28;20213;-69
2022/11/11 03:30:40;;;;;;;8.77;7.17;;;;;;;5.59;nan;99551.31;5056016;28;20244;-69
2022/11/11 03:33:08;;;;;;;8.73;6.97;;;;;;;5.59;nan;99546.03;5056329;28;20212;-69
2022/11/11 03:35:35;;;;;;;9.07;6.77;;;;;;;5.63;nan;99548.22;5056476;28;20205;-69
2022/11/11 03:38:22;;;;;;;10.90;7.00;;;;;;;5.55;nan;99548.16;5056748;28;20288;-69
2022/11/11 03:40:51;;;;;;;7.20;6.47;;;;;;;5.53;nan;99550.13;5055901;28;20236;-69
2022/11/11 03:43:19;;;;;;;8.93;7.03;;;;;;;5.55;nan;99545.50;5055936;28;20711;-68
2022/11/11 03:45:46;;;;;;;7.20;6.50;;;;;;;5.56;nan;99546.34;5055939;28;20201;-69
2022/11/11 03:48:13;;;;;;;10.27;6.10;;;;;;;5.62;nan;99543.94;5056250;28;20227;-69
2022/11/11 03:50:40;;;;;;;7.63;6.30;;;;;;;5.52;nan;99551.06;5055832;28;20232;-68
2022/11/11 03:53:07;;;;;;;7.17;5.97;;;;;;;5.43;nan;99554.59;5056093;28;20205;-69
2022/11/11 03:55:33;;;;;;;7.27;5.97;;;;;;;5.51;nan;99554.69;5056002;28;20209;-69
2022/11/11 03:57:59;;;;;;;8.17;6.30;;;;;;;5.44;nan;99555.44;5055895;28;20201;-68
2022/11/11 04:00:28;;;;;;;6.63;5.83;;;;;;;5.41;nan;99563.66;5055407;28;20730;-69
2022/11/11 04:11:33;;;;;;;6.70;6.00;;;;;;;5.42;nan;99581.16;5055621;28;20260;-69
2022/11/11 04:16:47;;;;;;;6.63;5.80;;;;;;;5.32;nan;99591.75;5055971;28;20631;-71
2022/11/11 04:21:57;;;;;;;7.07;6.33;;;;;;;5.19;nan;99580.75;5055261;28;20292;-71
2022/11/11 04:27:13;;;;;;;6.93;6.17;;;;;;;5.30;nan;99567.31;5055228;28;20559;-69
2022/11/11 04:29:39;;;;;;;8.63;6.67;;;;;;;5.19;nan;99567.56;5054935;28;20216;-68
2022/11/11 04:34:59;;;;;;;10.47;6.57;;;;;;;5.26;nan;99562.53;5055147;28;20177;-69
2022/11/11 04:37:27;;;;;;;9.13;6.43;;;;;;;5.20;nan;99560.50;5055286;28;20201;-68
2022/11/11 04:42:38;;;;;;;7.70;6.30;;;;;;;5.18;nan;99559.78;5055022;28;20177;-69
2022/11/11 04:48:03;;;;;;;10.93;6.60;;;;;;;5.07;nan;99573.19;5054903;28;20679;-70
2022/11/11 04:50:32;;;;;;;9.17;6.60;;;;;;;5.08;nan;99572.22;5054510;28;20225;-69
2022/11/11 04:53:00;;;;;;;9.27;7.13;;;;;;;5.05;nan;99591.78;5054407;28;20219;-69
2022/11/11 04:58:11;;;;;;;9.17;6.67;;;;;;;5.09;nan;99597.59;5054692;28;20285;-69
2022/11/11 05:00:38;;;;;;;8.67;6.60;;;;;;;5.03;nan;99599.03;5054329;28;20259;-69
2022/11/11 05:03:17;;;;;;;9.27;7.00;;;;;;;4.95;nan;99613.88;5054446;28;20209;-70
2022/11/11 05:11:15;;;;;;;8.20;6.03;;;;;;;4.91;nan;99633.59;5054227;28;20299;-68
2022/11/11 05:22:17;;;;;;;6.10;5.50;;;;;;;4.81;nan;99648.63;5053859;28;20327;-69
2022/11/11 05:27:27;;;;;;;6.77;5.40;;;;;;;4.86;nan;99656.91;5054219;28;20585;-69
2022/11/11 05:29:54;;;;;;;7.90;5.70;;;;;;;4.88;nan;99647.91;5053318;28;20201;-69
2022/11/11 05:32:23;;;;;;;6.20;5.60;;;;;;;4.81;nan;99656.53;5054072;28;20260;-69
2022/11/11 05:34:49;;;;;;;5.97;5.37;;;;;;;4.82;nan;99647.63;5054037;28;20211;-69
2022/11/11 05:37:16;;;;;;;6.10;5.30;;;;;;;4.83;nan;99651.94;5053958;28;20292;-68
2022/11/11 05:39:43;;;;;;;5.60;5.07;;;;;;;4.81;nan;99649.47;5053030;28;20205;-70
2022/11/11 05:42:10;;;;;;;5.67;5.17;;;;;;;4.80;nan;99657.50;5053246;28;20233;-69
2022/11/11 05:44:36;;;;;;;7.30;4.87;;;;;;;4.79;nan;99663.75;5053604;28;20205;-69
2022/11/11 05:47:02;;;;;;;7.43;5.07;;;;;;;4.83;nan;99670.38;5053243;28;20661;-69
2022/11/11 05:49:29;;;;;;;5.10;4.60;;;;;;;4.79;nan;99669.84;5053699;28;20229;-69
2022/11/11 05:51:56;;;;;;;7.00;5.20;;;;;;;4.78;nan;99673.44;5053582;28;20225;-69
2022/11/11 05:54:23;;;;;;;5.27;4.80;;;;;;;4.74;nan;99674.72;5053152;28;20570;-69
2022/11/11 05:56:49;;;;;;;7.23;5.10;;;;;;;4.68;nan;99674.44;5053335;28;20224;-69
2022/11/11 05:59:16;;;;;;;6.43;5.17;;;;;;;4.70;nan;99677.78;5053497;28;20197;-69
2022/11/11 06:01:43;;;;;;;5.47;4.60;;;;;;;4.68;nan;99682.34;5052625;28;20228;-69
2022/11/11 06:04:09;;;;;;;6.40;4.60;;;;;;;4.73;nan;99680.13;5053241;28;20209;-69
2022/11/11 06:06:36;;;;;;;5.27;4.77;;;;;;;4.74;nan;99679.16;5052608;28;20209;-69
2022/11/11 06:09:04;;;;;;;5.53;4.63;;;;;;;4.76;nan;99683.31;5053253;28;20224;-68
2022/11/11 06:11:31;;;;;;;5.53;4.27;;;;;;;4.80;nan;99684.66;5053261;28;20227;-69
2022/11/11 06:13:57;;;;;;;5.10;4.60;;;;;;;4.83;nan;99686.19;5052936;28;20215;-68
2022/11/11 06:16:24;;;;;;;5.50;4.93;;;;;;;4.80;nan;99686.50;5052807;28;20579;-68
2022/11/11 06:18:51;;;;;;;8.57;5.00;;;;;;;4.81;nan;99690.78;5052833;28;20224;-68
2022/11/11 06:21:18;;;;;;;7.53;4.87;;;;;;;4.84;nan;99696.59;5052628;28;20229;-70
2022/11/11 06:23:45;;;;;;;8.17;5.53;;;;;;;4.86;nan;99696.44;5052356;28;20193;-70
2022/11/11 06:26:15;;;;;;;7.03;4.70;;;;;;;4.89;nan;99701.44;5052449;28;20694;-71
2022/11/11 06:28:46;;;;;;;5.67;4.90;;;;;;;4.91;nan;99708.22;5052775;28;20216;-68
2022/11/11 06:31:16;;;;;;;8.77;5.00;;;;;;;4.86;nan;99714.88;5052696;28;20225;-70
2022/11/11 06:33:42;;;;;;;5.33;4.60;;;;;;;4.89;nan;99711.97;5053008;28;20205;-70
2022/11/11 06:36:12;;;;;;;7.63;5.00;;;;;;;4.90;nan;99716.28;5053489;28;20213;-68
2022/11/11 06:38:38;;;;;;;5.37;4.87;;;;;;;4.88;nan;99719.03;5052632;28;20201;-68
2022/11/11 06:41:05;;;;;;;5.30;4.20;;;;;;;4.92;nan;99719.56;5052945;28;20229;-70
2022/11/11 06:43:32;;;;;;;4.77;4.30;;;;;;;4.93;nan;99721.25;5056372;28;20216;-69
2022/11/11 06:45:58;;;;;;;5.47;4.87;;;;;;;4.83;nan;99726.53;5056663;28;20205;-68
2022/11/11 06:48:26;;;;;;;5.50;5.00;;;;;;;4.91;nan;99726.66;5056373;28;20231;-69
2022/11/11 06:50:54;;;;;;;5.50;4.50;;;;;;;4.96;nan;99718.31;5056406;28;20224;-68
2022/11/11 06:53:21;;;;;;;8.60;4.70;;;;;;;4.87;nan;99721.81;5056723;28;20205;-68
2022/11/11 06:55:51;;;;;;;7.47;4.87;;;;;;;4.97;nan;99714.75;5056872;28;20211;-68
2022/11/11 06:58:19;;;;;;;7.00;4.50;;;;;;;4.88;nan;99721.69;5056628;28;20201;-68
2022/11/11 07:00:47;;;;;;;5.47;5.00;;;;;;;4.83;nan;99725.72;5056658;28;20229;-69
2022/11/11 07:03:19;;;;;;;5.20;4.67;;;;;;;4.85;nan;99721.13;5055956;28;20230;-68
2022/11/11 07:05:47;;;;;;;6.37;4.60;;;;;;;4.89;nan;99727.78;5056361;28;20205;-68
2022/11/11 07:08:18;;;;;;;5.03;4.53;;;;;;;4.83;nan;99728.34;5054622;28;20225;-69
2022/11/11 07:10:47;;;;;;;7.33;4.97;;;;;;;4.75;nan;99730.88;5054257;28;20320;-69
2022/11/11 07:13:15;;;;;;;5.77;5.03;;;;;;;4.75;nan;99729.06;5053755;28;20220;-69
2022/11/11 07:15:44;;;;;;;7.27;4.93;;;;;;;4.76;nan;99735.16;5053913;28;20215;-69
2022/11/11 07:18:12;;;;;;;6.47;4.90;;;;;;;4.77;nan;99734.19;5053592;28;20201;-69
2022/11/11 07:20:39;;;;;;;5.77;5.27;;;;;;;4.91;nan;99721.41;5053213;28;20231;-71
2022/11/11 07:23:06;;;;;;;4.73;4.33;;;;;;;4.87;nan;99730.56;5033914;28;20676;-71
2022/11/11 07:25:32;;;;;;;6.70;5.03;;;;;;;4.88;nan;99731.41;5034395;28;20210;-71
2022/11/11 07:27:59;;;;;;;7.07;5.00;;;;;;;4.91;nan;99729.31;5034672;28;20206;-71
2022/11/11 07:30:26;;;;;;;5.33;4.83;;;;;;;4.96;nan;99724.44;5036207;28;20233;-71
2022/11/11 07:32:53;;;;;;;5.80;4.27;;;;;;;4.86;nan;99733.34;5036162;28;20312;-71
2022/11/11 07:35:20;;;;;;;6.77;4.63;;;;;;;4.87;nan;99742.91;5035925;28;20301;-71
2022/11/11 07:37:47;;;;;;;4.97;4.47;;;;;;;5.02;nan;99739.66;5035466;28;20573;-71
2022/11/11 07:40:16;;;;;;;5.90;4.37;;;;;;;5.08;nan;99743.53;5035408;28;20230;-71
2022/11/11 07:42:43;;;;;;;5.43;4.93;;;;;;;5.21;nan;99736.97;5035227;28;20212;-71
2022/11/11 07:45:11;;;;;;;6.13;4.27;;;;;;;5.13;nan;99741.31;5035627;28;20224;-70
2022/11/11 07:47:38;;;;;;;5.53;4.43;;;;;;;5.19;nan;99735.44;5035400;28;20216;-70
2022/11/11 07:50:06;;;;;;;5.37;4.47;;;;;;;5.32;nan;99743.88;5035631;28;20225;-71
2022/11/11 07:52:32;;;;;;;5.17;4.33;;;;;;;5.10;nan;99742.44;5035189;28;20296;-71
2022/11/11 07:54:59;;;;;;;4.93;4.53;;;;;;;5.03;nan;99741.34;5035161;28;20677;-70
2022/11/11 07:57:25;;;;;;;5.10;4.60;;;;;;;5.07;nan;99734.78;5035832;28;20212;-71
2022/11/11 07:59:52;;;;;;;6.10;5.00;;;;;;;5.16;nan;99738.41;5035443;28;20209;-71
2022/11/11 08:02:18;;;;;;;5.80;4.43;;;;;;;5.29;nan;99729.16;5035247;28;20226;-71
2022/11/11 08:04:44;;;;;;;7.33;4.33;;;;;;;5.21;nan;99738.78;5035713;28;20579;-71
2022/11/11 08:07:11;;;;;;;7.07;4.50;;;;;;;5.27;nan;99730.28;5035652;28;20206;-71
2022/11/11 08:09:37;;;;;;;4.97;4.07;;;;;;;5.39;nan;99729.94;5035140;28;20222;-71
2022/11/11 08:14:47;;;;;;;4.40;4.00;;;;;;;5.38;nan;99738.03;5035113;28;20177;-71
2022/11/11 08:17:14;;;;;;;4.90;4.27;;;;;;;5.41;nan;99737.72;5034875;28;20210;-72
2022/11/11 08:19:40;;;;;;;5.17;4.57;;;;;;;5.53;nan;99733.94;5034791;28;20213;-71
2022/11/11 08:22:06;;;;;;;5.63;4.40;;;;;;;5.61;nan;99742.75;5035018;28;20717;-71
2022/11/11 08:24:33;;;;;;;5.10;4.60;;;;;;;5.68;nan;99735.09;5035367;28;20591;-71
2022/11/11 08:26:59;;;;;;;6.93;5.03;;;;;;;5.74;nan;99731.88;5035299;28;20210;-71
2022/11/11 08:29:25;;;;;;;6.60;4.80;;;;;;;5.78;nan;99725.31;5035101;28;20237;-71
2022/11/11 08:31:52;;;;;;;5.93;4.93;;;;;;;5.76;nan;99732.56;5035203;28;20226;-71
2022/11/11 08:34:19;;;;;;;5.97;5.37;;;;;;;5.78;nan;99727.94;5035536;28;20570;-71
2022/11/11 08:36:45;;;;;;;7.87;4.83;;;;;;;5.61;nan;99724.28;5034737;28;20327;-71
2022/11/11 08:39:11;;;;;;;6.23;4.67;;;;;;;5.68;nan;99729.81;5034616;28;20216;-71
2022/11/11 08:41:38;;;;;;;8.40;5.60;;;;;;;5.71;nan;99733.00;5034723;28;20649;-71
2022/11/11 08:44:04;;;;;;;6.73;4.60;;;;;;;5.70;nan;99727.88;5034717;28;20297;-71
2022/11/11 08:46:31;;;;;;;7.77;4.57;;;;;;;5.70;nan;99730.50;5034737;28;20210;-71
2022/11/11 08:48:57;;;;;;;8.70;5.00;;;;;;;5.74;nan;99729.25;5034730;28;20308;-71
2022/11/11 08:51:24;;;;;;;7.50;4.70;;;;;;;5.72;nan;99731.19;5034481;28;20233;-71
2022/11/11 08:53:50;;;;;;;6.03;4.97;;;;;;;5.73;nan;99728.41;5034319;28;20212;-71
2022/11/11 08:56:16;;;;;;;9.23;5.30;;;;;;;5.79;nan;99732.28;5034865;28;20293;-71
2022/11/11 08:58:43;;;;;;;5.60;5.00;;;;;;;5.94;nan;99738.72;5034582;28;20288;-71
2022/11/11 09:01:14;;;;;;;5.83;4.80;;;;;;;6.16;nan;99740.94;5034174;28;20229;-71
2022/11/11 09:03:42;;;;;;;8.80;5.37;;;;;;;6.26;nan;99741.69;5034582;28;20216;-71
2022/11/11 09:06:11;;;;;;;6.20;4.83;;;;;;;6.40;nan;99739.34;5033247;28;20205;-71
2022/11/11 09:08:37;;;;;;;6.10;5.03;;;;;;;6.55;nan;99748.41;5033912;28;20226;-71
2022/11/11 09:11:04;;;;;;;7.67;5.57;;;;;;;6.68;nan;99745.34;5034419;28;20355;-71
2022/11/11 09:13:30;;;;;;;6.90;5.00;;;;;;;6.80;nan;99746.78;5034134;28;20695;-71
2022/11/11 09:15:58;;;;;;;7.23;5.50;;;;;;;6.83;nan;99741.19;5034934;28;20205;-71
2022/11/11 09:18:25;;;;;;;6.73;4.80;;;;;;;6.94;nan;99738.28;5034195;28;20576;-71
2022/11/11 09:20:51;;;;;;;8.47;4.93;;;;;;;7.04;nan;99739.00;5034302;28;20252;-71
2022/11/11 09:23:18;;;;;;;7.53;5.00;;;;;;;7.20;nan;99739.94;5034022;28;20220;-71
2022/11/11 09:25:44;;;;;;;6.63;4.97;;;;;;;7.22;nan;99730.03;5034405;28;20202;-71
2022/11/11 09:28:10;;;;;;;6.10;4.90;;;;;;;7.32;nan;99728.09;5033910;28;20742;-71
2022/11/11 09:30:37;;;;;;;8.33;5.40;;;;;;;7.49;nan;99726.34;5034114;28;20228;-71
2022/11/11 09:33:04;;;;;;;9.73;5.40;;;;;;;7.59;nan;99729.69;5033898;28;20202;-72
2022/11/11 09:35:31;;;;;;;7.63;5.43;;;;;;;7.68;nan;99724.28;5033896;28;20220;-71
2022/11/11 09:38:01;;;;;;;6.40;5.20;;;;;;;7.76;nan;99737.56;5033710;28;20308;-72
2022/11/11 09:40:49;;;;;;;10.63;5.00;;;;;;;7.91;nan;99730.63;5033669;28;20232;-72
2022/11/11 09:43:28;;;;;;;7.43;5.13;;;;;;;7.99;nan;99720.06;5033718;28;20641;-72
2022/11/11 09:46:08;;;;;;;7.30;4.60;;;;;;;8.08;nan;99723.56;5033773;28;20196;-72
2022/11/11 09:48:41;;;;;;;9.20;5.00;;;;;;;8.08;nan;99726.22;5033554;28;20281;-72
2022/11/11 09:51:18;;;;;;;7.43;4.57;;;;;;;8.17;nan;99715.47;5033764;28;20221;-72
2022/11/11 09:54:00;;;;;;;6.90;4.97;;;;;;;8.21;nan;99708.91;5033869;28;20198;-72
2022/11/11 09:56:27;;;;;;;10.10;5.00;;;;;;;8.25;nan;99715.53;5034162;28;20197;-72
2022/11/11 09:59:00;;;;;;;6.83;4.97;;;;;;;8.31;nan;99706.06;5033281;28;20205;-72
2022/11/11 10:01:29;;;;;;;7.70;4.80;;;;;;;8.29;nan;99714.19;5033655;28;20225;-72
2022/11/11 10:04:24;;;;;;;7.87;4.80;;;;;;;8.36;nan;99709.03;5033575;28;20232;-75
2022/11/11 10:06:57;;;;;;;6.90;4.30;;;;;;;8.48;nan;99710.38;5030659;28;20213;-75
2022/11/11 10:09:53;;;;;;;9.00;5.03;;;;;;;8.46;nan;99718.50;5032480;28;20214;-72
2022/11/11 10:12:26;;;;;;;9.17;4.97;;;;;;;8.54;nan;99712.38;5032340;28;20190;-71
2022/11/11 10:14:54;;;;;;;5.13;4.63;;;;;;;8.68;nan;99711.69;5033973;28;20194;-72
2022/11/11 10:17:42;;;;;;;6.60;5.00;;;;;;;8.70;nan;99710.56;5032589;28;20672;-72
2022/11/11 10:20:39;;;;;;;5.77;4.90;;;;;;;8.79;nan;99711.38;5033288;28;20186;-71
2022/11/11 10:23:08;;;;;;;9.70;5.47;;;;;;;8.72;nan;99713.88;5033152;28;20210;-71
2022/11/11 10:25:36;;;;;;;5.50;4.63;;;;;;;8.79;nan;99711.38;5033384;28;20681;-72
2022/11/11 10:28:03;;;;;;;6.90;4.93;;;;;;;8.92;nan;99709.84;5033368;28;20210;-71
2022/11/11 10:30:32;;;;;;;5.73;5.03;;;;;;;8.94;nan;99715.84;5033053;28;20233;-72
2022/11/11 10:33:04;;;;;;;5.87;4.73;;;;;;;8.95;nan;99716.66;5033026;28;20212;-72
2022/11/11 10:35:33;;;;;;;9.73;5.70;;;;;;;9.07;nan;99720.59;5033069;28;20216;-72
2022/11/11 10:38:14;;;;;;;8.43;5.90;;;;;;;9.43;nan;99714.72;5033368;28;20206;-72
2022/11/11 10:40:52;;;;;;;7.77;5.30;;;;;;;9.52;nan;99723.47;5032829;28;20229;-72
2022/11/11 10:43:29;;;;;;;10.10;5.43;;;;;;;9.59;nan;99729.75;5032984;28;20208;-72
2022/11/11 10:46:31;;;;;;;9.20;6.47;;;;;;;9.78;nan;99724.03;5033078;28;20200;-72
2022/11/11 10:49:11;;;;;;;9.30;5.93;;;;;;;9.69;nan;99719.75;5014781;28;20229;-72
2022/11/11 10:52:03;;;;;;;9.37;5.67;;;;;;;9.78;nan;99716.06;5032751;28;20233;-72
2022/11/11 10:54:38;;;;;;;7.80;5.87;;;;;;;9.94;nan;99716.78;5029721;28;20216;-72
2022/11/11 10:57:19;;;;;;;9.23;6.87;;;;;;;9.91;nan;99716.31;5031254;28;20190;-72
2022/11/11 11:00:07;;;;;;;15.70;11.40;;;;;;;10.13;nan;99705.75;5016125;28;20209;-72
2022/11/11 11:02:34;;;;;;;10.33;5.90;;;;;;;10.11;nan;99704.25;5032743;28;20190;-74
2022/11/11 11:05:10;;;;;;;9.37;5.73;;;;;;;10.06;nan;99703.97;5032708;28;20216;-74
2022/11/11 11:07:43;;;;;;;9.50;6.97;;;;;;;10.17;nan;99696.41;5032652;28;20193;-74
2022/11/11 11:10:17;;;;;;;17.23;13.17;;;;;;;10.18;nan;99698.06;5032714;28;20214;-74
2022/11/11 11:12:58;;;;;;;7.40;5.83;;;;;;;10.21;nan;99689.75;5032472;28;20640;-74
2022/11/11 11:15:27;;;;;;;9.57;6.53;;;;;;;10.19;nan;99678.44;5032720;28;20190;-74
2022/11/11 11:17:56;;;;;;;7.67;5.17;;;;;;;10.40;nan;99680.44;5032145;28;20695;-74
2022/11/11 11:20:23;;;;;;;9.77;5.90;;;;;;;10.30;nan;99683.38;5032902;28;20229;-74
2022/11/11 11:22:57;;;;;;;10.33;7.80;;;;;;;10.29;nan;99683.53;5032595;28;20304;-74
2022/11/11 11:25:24;;;;;;;11.40;8.40;;;;;;;10.25;nan;99676.91;5032842;28;20192;-74
2022/11/11 11:27:52;;;;;;;7.90;5.90;;;;;;;10.25;nan;99685.75;5032346;28;20572;-74
2022/11/11 11:30:25;;;;;;;13.03;8.27;;;;;;;10.40;nan;99683.09;5036228;28;20230;-73
2022/11/11 11:33:05;;;;;;;11.43;7.93;;;;;;;10.50;nan;99684.53;5035886;28;20264;-73
2022/11/11 11:35:40;;;;;;;10.63;6.37;;;;;;;10.55;nan;99684.81;5035731;28;20216;-70
2022/11/11 11:38:09;;;;;;;10.80;7.87;;;;;;;10.52;nan;99687.00;5035790;28;20217;-72
2022/11/11 11:40:52;;;;;;;6.50;5.57;;;;;;;10.58;nan;99684.47;5035704;28;20309;-72
2022/11/11 11:43:38;;;;;;;6.70;4.90;;;;;;;10.43;nan;99685.41;5036084;28;20190;-72
2022/11/11 11:46:27;;;;;;;8.57;5.57;;;;;;;10.30;nan;99685.19;5036061;28;20190;-72
2022/11/11 11:49:09;;;;;;;6.57;5.20;;;;;;;10.38;nan;99682.47;5035684;28;20196;-72
2022/11/11 11:51:49;;;;;;;9.20;6.17;;;;;;;10.54;nan;99677.84;5035974;28;20257;-72
2022/11/11 11:54:55;;;;;;;6.13;5.53;;;;;;;10.70;nan;99677.72;5035951;28;20194;-72
2022/11/11 11:57:30;;;;;;;9.47;5.77;;;;;;;10.66;nan;99671.09;5035768;28;20281;-72
2022/11/11 12:00:05;;;;;;;8.50;5.80;;;;;;;10.59;nan;99661.38;5035820;28;20193;-72
2022/11/11 12:03:08;;;;;;;7.90;4.90;;;;;;;10.80;nan;99662.31;5035747;28;20276;-71
2022/11/11 12:05:41;;;;;;;11.20;5.37;;;;;;;10.94;nan;99674.81;5035652;28;20281;-71
2022/11/11 12:08:19;;;;;;;6.87;5.93;;;;;;;11.02;nan;99674.72;5035291;28;20192;-71
2022/11/11 12:10:51;;;;;;;6.50;5.43;;;;;;;11.04;nan;99675.38;5035432;28;20234;-71
2022/11/11 12:13:59;;;;;;;9.70;5.40;;;;;;;11.18;nan;99663.09;5035536;28;20289;-71
2022/11/11 12:16:34;;;;;;;7.20;5.80;;;;;;;11.30;nan;99671.44;5013077;28;20207;-71
2022/11/11 12:19:27;;;;;;;7.90;5.57;;;;;;;11.43;nan;99671.63;5033035;28;20247;-70
2022/11/11 12:22:18;;;;;;;8.17;5.47;;;;;;;11.53;nan;99670.28;5034455;28;20363;-71
2022/11/11 12:25:02;;;;;;;13.13;5.30;;;;;;;11.51;nan;99668.81;5035434;28;20644;-71
2022/11/11 12:27:52;;;;;;;7.23;5.70;;;;;;;11.65;nan;99666.19;5034967;28;20664;-71
2022/11/11 12:30:27;;;;;;;6.40;5.50;;;;;;;11.58;nan;99670.56;5034537;28;20228;-71
2022/11/11 12:33:05;;;;;;;7.60;5.80;;;;;;;11.46;nan;99661.41;5034772;28;20244;-70
2022/11/11 12:35:48;;;;;;;7.33;5.77;;;;;;;11.38;nan;99660.66;5034494;28;20252;-70
2022/11/11 12:38:49;;;;;;;7.63;5.47;;;;;;;11.48;nan;99661.22;5034587;28;20282;-70
2022/11/11 12:41:34;;;;;;;7.13;5.27;;;;;;;11.37;nan;99664.34;5034771;28;20230;-71
2022/11/11 12:44:09;;;;;;;7.47;5.13;;;;;;;11.31;nan;99660.59;5034510;28;20190;-70
2022/11/11 12:47:06;;;;;;;6.20;5.10;;;;;;;11.45;nan;99666.91;5034658;28;20197;-70
2022/11/11 12:49:54;;;;;;;8.53;5.00;;;;;;;11.39;nan;99662.34;5034545;28;20574;-70
2022/11/11 12:52:47;;;;;;;10.60;5.30;;;;;;;11.43;nan;99668.94;5035208;28;20207;-71
2022/11/11 12:55:19;;;;;;;8.43;5.00;;;;;;;11.52;nan;99658.00;5034601;28;20583;-70
2022/11/11 12:58:05;;;;;;;6.07;5.10;;;;;;;11.52;nan;99660.66;5034720;28;20191;-70
2022/11/11 13:00:36;;;;;;;8.53;4.77;;;;;;;11.65;nan;99660.00;5034534;28;20240;-70
2022/11/11 13:03:11;;;;;;;8.53;4.77;;;;;;;11.58;nan;99659.09;5033990;28;20191;-70
2022/11/11 13:05:47;;;;;;;6.90;5.23;;;;;;;11.54;nan;99649.81;5034487;28;20556;-71
2022/11/11 13:08:39;;;;;;;8.77;5.07;;;;;;;11.54;nan;99652.47;5034172;28;20643;-70
2022/11/11 13:11:38;;;;;;;5.93;4.90;;;;;;;11.54;nan;99645.34;5034298;28;20241;-70
2022/11/11 13:14:04;;;;;;;5.63;4.70;;;;;;;11.63;nan;99646.06;5034633;28;20197;-70
2022/11/11 13:16:31;;;;;;;7.67;4.90;;;;;;;11.60;nan;99639.28;5034209;28;20300;-70
2022/11/11 13:19:06;;;;;;;10.30;5.13;;;;;;;11.76;nan;99639.03;5033980;28;20238;-70
2022/11/11 13:21:48;;;;;;;7.70;4.90;;;;;;;11.82;nan;99629.47;5034229;28;20241;-70
2022/11/11 13:24:18;;;;;;;5.03;4.50;;;;;;;11.86;nan;99630.75;5034111;28;20196;-70
2022/11/11 13:26:50;;;;;;;7.18;5.07;;;;;;;12.13;nan;99635.34;5033829;28;20418;-70
2022/11/11 13:29:50;;;;;;;6.10;4.53;;;;;;;12.26;nan;99635.47;5034079;28;20201;-71